Time;durP1;ratioP1;P1;durP2;ratioP2;P2;SDS_P1;SDS_P2;PMS_P1;PMS_P2;Temp;Humidity;BMP_temperature;BMP_pressure;BME280_temperature;BME280_humidity;BME280_pressure;Samples;Min_cycle;Max_cycle;Signal;HPM_P1;HPM_P2
2023/08/06 00:01:33;;;;;;;;;17.33;16.67;;;;;-143.90;93.80;73281.00;4986441;28;103507;-75
2023/08/06 00:04:05;;;;;;;;;6.00;5.00;;;;;-143.90;94.01;73270.66;4989312;28;102848;-76
2023/08/06 00:06:57;;;;;;;;;5.67;5.67;;;;;-143.90;93.91;73258.25;4966098;28;102312;-75
2023/08/06 00:09:43;;;;;;;;;3.00;3.00;;;;;-143.90;93.91;73243.81;4981828;28;101584;-76
2023/08/06 00:12:31;;;;;;;;;4.33;3.67;;;;;-143.90;93.88;73229.34;4983450;28;102625;-76
2023/08/06 00:15:18;;;;;;;;;4.00;4.00;;;;;-143.90;93.64;73216.94;4982038;28;101720;-76
2023/08/06 00:17:58;;;;;;;;;4.00;4.00;;;;;-143.90;93.33;73202.47;4984550;28;101610;-76
2023/08/06 00:20:26;;;;;;;;;5.67;5.67;;;;;-143.90;93.15;73190.06;4987231;28;103377;-76
2023/08/06 00:22:53;;;;;;;;;3.00;3.00;;;;;-143.90;93.13;73192.16;4984972;28;103566;-76
2023/08/06 00:25:20;;;;;;;;;4.67;3.67;;;;;-143.90;92.95;73159.09;4967131;28;102665;-76
2023/08/06 00:27:49;;;;;;;;;3.33;3.33;;;;;-143.90;93.16;73134.28;4992036;28;102217;-76
2023/08/06 00:30:16;;;;;;;;;3.00;3.00;;;;;-143.90;93.14;73130.16;4988654;27;101640;-76
2023/08/06 00:32:44;;;;;;;;;1.33;1.00;;;;;-143.90;93.13;73130.16;5004094;27;103894;-76
2023/08/06 00:35:13;;;;;;;;;1.67;1.67;;;;;-143.90;92.71;73136.34;4985050;28;101975;-76
2023/08/06 00:37:40;;;;;;;;;4.33;3.33;;;;;-143.90;92.57;73150.81;4998984;28;101910;-76
2023/08/06 00:40:08;;;;;;;;;7.67;6.00;;;;;-143.90;92.74;73134.28;4987524;28;102119;-76
2023/08/06 00:42:35;;;;;;;;;4.00;4.00;;;;;-143.90;93.75;73121.88;4978604;28;103450;-76
2023/08/06 00:45:02;;;;;;;;;5.00;5.00;;;;;-143.90;93.58;73183.88;4997627;27;101794;-76
2023/08/06 00:47:30;;;;;;;;;11.33;11.33;;;;;-143.90;94.43;73167.34;4996339;28;101528;-76
2023/08/06 00:49:57;;;;;;;;;12.33;9.00;;;;;-143.90;95.05;73152.88;5002272;28;102424;-76
2023/08/06 00:52:25;;;;;;;;;7.00;4.00;;;;;-143.90;95.00;73146.69;5004396;28;102963;-76
2023/08/06 00:54:52;;;;;;;;;5.67;5.00;;;;;-143.90;94.41;73130.16;4986353;28;102130;-76
2023/08/06 00:57:23;;;;;;;;;6.00;4.67;;;;;-143.90;94.51;73123.94;4981865;28;101789;-76
2023/08/06 00:59:50;;;;;;;;;4.00;4.00;;;;;-143.90;94.27;73138.41;5010704;27;101933;-76
2023/08/06 01:02:17;;;;;;;;;5.67;5.00;;;;;-143.90;94.04;73150.81;5004990;27;102518;-76
2023/08/06 01:04:44;;;;;;;;;11.33;10.33;;;;;-143.90;93.75;73157.00;4996268;28;102329;-75
2023/08/06 01:07:29;;;;;;;;;12.33;12.00;;;;;-143.90;93.65;73159.09;5004097;27;101926;-76
2023/08/06 01:10:27;;;;;;;;;18.67;17.67;;;;;-143.90;93.53;73161.16;4999746;28;101712;-76
2023/08/06 01:13:36;;;;;;;;;12.00;10.67;;;;;-143.90;94.16;73154.94;4982213;27;104606;-76
2023/08/06 01:16:26;;;;;;;;;7.33;6.33;;;;;-143.90;93.95;73146.69;4989771;27;101829;-75
2023/08/06 01:19:16;;;;;;;;;7.00;7.00;;;;;-143.90;93.76;73132.22;5007199;27;101719;-76
2023/08/06 01:21:52;;;;;;;;;6.00;6.00;;;;;-143.90;93.55;73113.63;5000763;27;102221;-76
2023/08/06 01:24:20;;;;;;;;;5.00;3.67;;;;;-143.90;93.76;73097.09;4996619;27;103373;-76
2023/08/06 01:27:06;;;;;;;;;4.00;3.33;;;;;-143.90;93.41;73080.56;5003022;27;104249;-76
2023/08/06 01:29:44;;;;;;;;;4.67;4.67;;;;;-143.90;93.16;73078.50;4983097;27;101964;-75
2023/08/06 01:32:14;;;;;;;;;9.33;8.00;;;;;-143.90;92.75;73072.28;5001604;27;101686;-76
2023/08/06 01:34:44;;;;;;;;;6.00;5.67;;;;;-143.90;93.19;73064.03;4985349;28;103722;-76
2023/08/06 01:37:12;;;;;;;;;5.00;5.00;;;;;-143.90;93.27;73066.09;4989145;28;101968;-76
2023/08/06 01:39:42;;;;;;;;;3.33;3.33;;;;;-143.90;92.91;73076.44;5000269;28;101860;-76
2023/08/06 01:42:09;;;;;;;;;4.00;3.67;;;;;-143.90;92.96;73082.63;5002865;28;101975;-76
2023/08/06 01:44:36;;;;;;;;;4.33;4.33;;;;;-143.90;92.54;73076.44;5000385;28;103533;-76
2023/08/06 01:47:04;;;;;;;;;4.33;4.00;;;;;-143.90;92.10;73082.63;5001134;28;102075;-75
2023/08/06 01:49:31;;;;;;;;;13.33;11.67;;;;;-143.90;91.44;73101.22;4997540;28;103385;-76
2023/08/06 01:51:58;;;;;;;;;7.67;6.67;;;;;-143.90;91.79;73109.50;4986975;28;102132;-75
2023/08/06 01:54:25;;;;;;;;;6.00;5.00;;;;;-143.90;92.09;73107.41;5005223;28;103529;-75
2023/08/06 01:56:52;;;;;;;;;6.33;6.00;;;;;-143.90;91.86;73092.97;5002625;28;101866;-75
2023/08/06 01:59:19;;;;;;;;;7.00;7.00;;;;;-143.90;91.95;73101.22;5001249;28;102116;-75
2023/08/06 02:01:46;;;;;;;;;4.00;4.00;;;;;-143.90;91.77;73109.50;5001539;28;102020;-76
2023/08/06 02:04:13;;;;;;;;;6.33;6.33;;;;;-143.90;91.78;73107.41;5002632;28;103455;-75
2023/08/06 02:06:40;;;;;;;;;4.67;3.00;;;;;-143.90;92.13;73097.09;5005194;28;101753;-76
2023/08/06 02:09:07;;;;;;;;;8.33;7.33;;;;;-143.90;92.90;73115.69;4999052;28;102265;-76
2023/08/06 02:11:34;;;;;;;;;13.33;12.00;;;;;-143.90;92.94;73119.81;4998888;28;101746;-75
2023/08/06 02:14:01;;;;;;;;;8.67;7.00;;;;;-143.90;92.97;73117.75;4980884;28;107196;-75
2023/08/06 02:16:28;;;;;;;;;7.00;7.00;;;;;-143.90;93.15;73113.63;5003140;28;101693;-76
2023/08/06 02:18:56;;;;;;;;;5.67;4.33;;;;;-143.90;92.93;73107.41;5003679;28;101547;-76
2023/08/06 02:21:23;;;;;;;;;8.67;8.67;;;;;-143.90;92.54;73105.34;5006142;28;101979;-75
2023/08/06 02:23:50;;;;;;;;;6.33;6.33;;;;;-143.90;92.84;73103.28;5003170;28;103549;-76
2023/08/06 02:26:17;;;;;;;;;11.00;11.00;;;;;-143.90;92.63;73105.34;4992768;28;101578;-76
2023/08/06 02:28:44;;;;;;;;;9.00;9.00;;;;;-143.90;92.67;73117.75;5004758;28;101724;-76
2023/08/06 02:31:11;;;;;;;;;7.00;7.00;;;;;-143.90;93.08;73117.75;4987061;28;102625;-76
2023/08/06 02:33:38;;;;;;;;;5.33;5.33;;;;;-143.90;92.92;73113.63;5007601;27;104799;-76
2023/08/06 02:36:05;;;;;;;;;11.00;10.00;;;;;-143.90;92.66;73117.75;5007006;27;101809;-76
2023/08/06 02:38:33;;;;;;;;;15.33;14.67;;;;;-143.90;92.43;73119.81;5005029;27;101812;-75
2023/08/06 02:41:03;;;;;;;;;13.33;13.00;;;;;-143.90;92.84;73126.03;5007646;27;101833;-76
2023/08/06 02:43:31;;;;;;;;;16.33;14.00;;;;;-143.90;93.38;73123.94;5002640;27;102645;-76
2023/08/06 02:45:59;;;;;;;;;17.33;16.33;;;;;-143.90;93.16;73123.94;5000676;27;101617;-76
2023/08/06 02:48:27;;;;;;;;;9.00;9.00;;;;;-143.90;93.63;73121.88;5002952;27;101793;-75
2023/08/06 02:50:57;;;;;;;;;6.00;6.00;;;;;-143.90;93.60;73117.75;4992613;27;102235;-76
2023/08/06 02:53:24;;;;;;;;;5.33;5.33;;;;;-143.90;93.43;73105.34;5006306;27;103564;-76
2023/08/06 02:55:52;;;;;;;;;5.33;4.33;;;;;-143.90;93.58;73099.16;5007325;27;101799;-76
2023/08/06 02:58:22;;;;;;;;;3.67;3.67;;;;;-143.90;93.49;73095.03;4988479;28;101765;-76
2023/08/06 03:01:03;;;;;;;;;3.67;3.67;;;;;-143.90;93.54;73084.69;5013377;27;101788;-76
2023/08/06 03:03:31;;;;;;;;;3.67;3.00;;;;;-143.90;93.48;73078.50;5003128;27;103535;-76
2023/08/06 03:05:59;;;;;;;;;2.33;2.00;;;;;-143.90;94.02;73070.22;4985621;28;101889;-76
2023/08/06 03:08:26;;;;;;;;;6.00;5.00;;;;;-143.90;93.40;73070.22;4986814;28;103084;-76
2023/08/06 03:10:53;;;;;;;;;3.67;3.67;;;;;-143.90;93.29;73078.50;4978447;28;102011;-76
2023/08/06 03:13:20;;;;;;;;;18.00;16.33;;;;;-143.90;93.67;73090.91;5000396;27;102295;-75
2023/08/06 03:15:57;;;;;;;;;17.00;15.33;;;;;-143.90;94.89;73092.97;5001102;27;103168;-75
2023/08/06 03:18:25;;;;;;;;;19.67;18.67;;;;;-143.90;96.52;73092.97;5008974;27;101565;-74
2023/08/06 03:20:53;;;;;;;;;17.33;15.67;;;;;-143.90;96.99;73088.81;5004496;27;102871;-75
2023/08/06 03:23:20;;;;;;;;;21.33;19.67;;;;;-143.90;97.48;73090.91;5003617;27;103351;-74
2023/08/06 03:25:47;;;;;;;;;22.50;20.25;;;;;-143.90;98.02;73084.69;5008366;27;101856;-75
2023/08/06 03:28:15;;;;;;;;;16.00;15.33;;;;;-143.90;97.57;73084.69;5005537;28;101571;-75
2023/08/06 03:30:42;;;;;;;;;14.00;11.00;;;;;-143.90;97.70;73072.28;5002775;27;102057;-75
2023/08/06 03:33:09;;;;;;;;;7.00;7.00;;;;;-143.90;97.55;73068.16;5000235;28;103385;-76
2023/08/06 03:35:36;;;;;;;;;6.00;6.00;;;;;-143.90;97.18;73072.28;5010560;27;101752;-75
2023/08/06 03:38:03;;;;;;;;;8.67;8.00;;;;;-143.90;97.18;73059.91;4995163;28;101564;-75
2023/08/06 03:40:30;;;;;;;;;12.00;12.00;;;;;-143.90;96.43;73055.75;5007449;27;101573;-75
2023/08/06 03:42:57;;;;;;;;;10.00;8.00;;;;;-143.90;96.72;73055.75;5004934;27;105084;-75
2023/08/06 03:45:24;;;;;;;;;8.33;7.00;;;;;-143.90;96.99;73039.22;4986701;28;101891;-74
2023/08/06 03:47:51;;;;;;;;;5.67;4.67;;;;;-143.90;96.96;73030.97;5000564;27;102764;-75
2023/08/06 03:50:18;;;;;;;;;4.67;4.67;;;;;-143.90;97.19;73030.97;4997662;28;101804;-75
2023/08/06 03:52:46;;;;;;;;;4.67;4.67;;;;;-143.90;97.06;73020.63;4987458;28;102857;-75
2023/08/06 03:55:13;;;;;;;;;3.33;3.33;;;;;-143.90;96.73;73012.38;4996894;27;101617;-75
2023/08/06 03:57:40;;;;;;;;;4.00;3.00;;;;;-143.90;96.55;73006.16;4987490;27;102726;-75
2023/08/06 04:00:07;;;;;;;;;4.00;4.00;;;;;-143.90;96.34;73004.09;5003699;27;101692;-75
2023/08/06 04:02:34;;;;;;;;;3.00;3.00;;;;;-143.90;96.01;72989.66;4981120;28;103371;-75
2023/08/06 04:05:02;;;;;;;;;5.00;4.00;;;;;-143.90;95.93;72991.72;5004947;27;102681;-75
2023/08/06 04:07:29;;;;;;;;;3.00;3.00;;;;;-143.90;95.47;72983.44;5001282;28;102970;-76
2023/08/06 04:10:03;;;;;;;;;1.33;1.33;;;;;-143.90;95.38;72985.50;5005629;27;102357;-75
2023/08/06 04:12:32;;;;;;;;;3.00;2.33;;;;;-143.90;95.24;72981.38;4995242;28;103838;-75
2023/08/06 04:15:00;;;;;;;;;3.33;2.33;;;;;-143.90;95.21;72985.50;5001783;27;101546;-75
2023/08/06 04:17:28;;;;;;;;;2.00;2.00;;;;;-143.90;94.72;72989.66;5001068;27;101899;-75
2023/08/06 04:19:58;;;;;;;;;4.00;3.33;;;;;-143.90;94.86;72981.38;5003481;27;101757;-75
2023/08/06 04:22:25;;;;;;;;;6.33;5.67;;;;;-143.90;94.41;72971.03;4994202;27;103387;-75
2023/08/06 04:24:52;;;;;;;;;3.00;3.00;;;;;-143.90;94.58;72966.91;4998711;27;102015;-75
2023/08/06 04:27:19;;;;;;;;;5.33;5.33;;;;;-143.90;94.36;72960.72;5004149;27;101518;-75
2023/08/06 04:29:46;;;;;;;;;2.67;2.67;;;;;-143.90;93.99;72956.59;4989540;28;103399;-75
2023/08/06 04:32:13;;;;;;;;;4.67;4.67;;;;;-143.90;93.90;72964.84;5000125;28;103316;-75
2023/08/06 04:34:41;;;;;;;;;4.00;4.00;;;;;-143.90;93.82;72960.72;5006137;28;101839;-75
2023/08/06 04:37:08;;;;;;;;;3.00;2.67;;;;;-143.90;93.68;72960.72;4984474;28;101860;-75
2023/08/06 04:39:35;;;;;;;;;4.33;4.00;;;;;-143.90;93.41;72946.25;4990557;27;101602;-75
2023/08/06 04:42:02;;;;;;;;;5.67;5.00;;;;;-143.90;93.46;72948.31;5000263;27;103426;-76
2023/08/06 04:44:29;;;;;;;;;5.00;4.00;;;;;-143.90;93.36;72948.31;4994062;28;102007;-76
2023/08/06 04:46:56;;;;;;;;;1.33;1.33;;;;;-143.90;92.92;72954.50;4982081;28;101959;-76
2023/08/06 04:49:24;;;;;;;;;1.33;1.33;;;;;-143.90;93.36;72958.66;5002917;27;101955;-77
2023/08/06 04:51:53;;;;;;;;;3.00;3.00;;;;;-143.90;93.42;72952.44;5000315;27;102526;-76
2023/08/06 04:54:20;;;;;;;;;5.00;5.00;;;;;-143.90;93.55;72958.66;5001298;27;102331;-76
2023/08/06 04:56:47;;;;;;;;;4.33;3.33;;;;;-143.90;93.50;72948.31;5006824;27;101909;-75
2023/08/06 04:59:14;;;;;;;;;3.33;3.33;;;;;-143.90;93.28;72944.19;5004317;27;101645;-75
2023/08/06 05:01:41;;;;;;;;;3.67;3.67;;;;;-143.90;93.14;72938.00;5005807;27;103177;-75
2023/08/06 05:04:08;;;;;;;;;5.33;5.33;;;;;-143.90;92.71;72931.78;5000568;27;103399;-76
2023/08/06 05:06:38;;;;;;;;;6.00;6.00;;;;;-143.90;92.66;72929.72;5005531;27;101991;-76
2023/08/06 05:09:06;;;;;;;;;5.67;5.33;;;;;-143.90;93.06;72931.78;4999459;27;101627;-77
2023/08/06 05:11:33;;;;;;;;;6.67;5.33;;;;;-143.90;92.90;72931.78;5002890;27;103122;-76
2023/08/06 05:14:00;;;;;;;;;7.67;5.33;;;;;-143.90;92.72;72923.53;4998501;28;102078;-76
2023/08/06 05:16:27;;;;;;;;;7.33;7.00;;;;;-143.90;92.45;72923.53;4969492;27;101852;-76
2023/08/06 05:18:54;;;;;;;;;5.00;4.00;;;;;-143.90;92.25;72919.38;4996186;28;102717;-76
2023/08/06 05:21:21;;;;;;;;;7.67;5.00;;;;;-143.90;92.36;72915.25;5006559;28;103353;-76
2023/08/06 05:23:49;;;;;;;;;4.33;3.67;;;;;-143.90;91.90;72911.13;5005143;27;101927;-76
2023/08/06 05:26:19;;;;;;;;;4.00;4.00;;;;;-143.90;91.98;72896.66;5003311;28;101546;-76
2023/08/06 05:28:46;;;;;;;;;2.67;2.33;;;;;-143.90;91.84;72892.53;5005933;27;101842;-76
2023/08/06 05:31:13;;;;;;;;;5.00;5.00;;;;;-143.90;91.91;72890.47;4985261;27;103360;-76
2023/08/06 05:33:40;;;;;;;;;5.00;5.00;;;;;-143.90;92.08;72890.47;5001430;27;102315;-76
2023/08/06 05:36:07;;;;;;;;;6.00;4.67;;;;;-143.90;92.00;72886.34;4981345;28;102005;-76
2023/08/06 05:38:35;;;;;;;;;5.67;5.67;;;;;-143.90;91.92;72884.25;4993337;27;101987;-76
2023/08/06 05:41:02;;;;;;;;;6.67;6.33;;;;;-143.90;91.82;72886.34;4984245;28;103452;-76
2023/08/06 05:43:29;;;;;;;;;6.00;5.00;;;;;-143.90;91.75;72884.25;4974711;28;102238;-76
2023/08/06 05:45:57;;;;;;;;;4.00;4.00;;;;;-143.90;92.17;72882.19;5002288;27;102288;-76
2023/08/06 05:48:24;;;;;;;;;5.00;4.00;;;;;-143.90;91.89;72882.19;5002899;27;102435;-76
2023/08/06 05:50:52;;;;;;;;;4.33;4.33;;;;;-143.90;91.91;72878.06;4983557;28;103399;-76
2023/08/06 05:53:19;;;;;;;;;7.00;7.00;;;;;-143.90;91.86;72873.94;4999430;28;102910;-76
2023/08/06 05:55:47;;;;;;;;;3.00;3.00;;;;;-143.90;91.64;72873.94;4984592;27;101544;-76
2023/08/06 05:58:14;;;;;;;;;4.67;4.67;;;;;-143.90;92.17;72869.81;4994125;28;101716;-75
2023/08/06 06:00:41;;;;;;;;;6.67;6.00;;;;;-143.90;92.15;72863.59;4986066;28;103535;-75
2023/08/06 06:03:09;;;;;;;;;8.33;7.00;;;;;-143.90;92.17;72853.28;4995614;27;102573;-75
2023/08/06 06:05:38;;;;;;;;;8.33;8.33;;;;;-143.90;92.05;72857.41;4984242;28;101958;-75
2023/08/06 06:08:06;;;;;;;;;7.33;7.00;;;;;-143.90;91.95;72859.47;5000769;27;102036;-75
2023/08/06 06:10:33;;;;;;;;;8.00;7.00;;;;;-143.90;92.75;72869.81;5000468;28;103698;-76
2023/08/06 06:13:00;;;;;;;;;10.00;8.67;;;;;-143.90;93.19;72863.59;4992839;27;103022;-76
2023/08/06 06:15:27;;;;;;;;;5.67;4.00;;;;;-143.90;93.32;72857.41;4987757;27;101845;-75
2023/08/06 06:17:54;;;;;;;;;6.00;6.00;;;;;-143.90;93.14;72849.13;4973689;27;101728;-75
2023/08/06 06:20:21;;;;;;;;;5.33;4.67;;;;;-143.90;92.92;72851.22;4999046;27;103367;-75
2023/08/06 06:22:48;;;;;;;;;5.67;5.67;;;;;-143.90;93.04;72847.06;4998347;28;103371;-75
2023/08/06 06:25:15;;;;;;;;;6.00;5.00;;;;;-143.90;93.23;72834.69;4986470;28;101580;-75
2023/08/06 06:27:43;;;;;;;;;7.00;5.67;;;;;-143.90;92.86;72840.88;4976239;28;101829;-75
2023/08/06 06:30:12;;;;;;;;;7.00;6.00;;;;;-143.90;93.07;72842.94;4966118;28;102748;-75
2023/08/06 06:32:40;;;;;;;;;5.33;5.00;;;;;-143.90;92.90;72861.53;5001893;27;102055;-74
2023/08/06 06:35:15;;;;;;;;;7.33;6.00;;;;;-143.90;91.38;72882.19;4989195;28;101799;-75
2023/08/06 06:37:51;;;;;;;;;6.00;6.00;;;;;-143.90;90.24;72909.06;5002871;28;101884;-75
2023/08/06 06:40:38;;;;;;;;;4.00;4.00;;;;;-143.90;90.22;72913.19;4983920;28;103327;-75
2023/08/06 06:43:45;;;;;;;;;;;;;;;;;;;;;
2023/08/06 06:46:27;;;;;;;;;1.00;1.00;;;;;-143.90;89.47;72950.38;5001179;27;101885;-76
2023/08/06 06:48:55;;;;;;;;;1.00;1.00;;;;;-143.90;90.78;72993.78;5006575;27;102250;-74
2023/08/06 06:55:54;;;;;;;;;;;;;;;;;;;;;
2023/08/06 06:58:48;;;;;;;;;0.00;0.00;;;;;-143.90;91.82;72991.72;4935179;28;101866;-76
2023/08/06 07:05:34;;;;;;;;;;;;;;;;;;;;;
2023/08/06 07:09:01;;;;;;;;;0.00;0.00;;;;;-143.90;92.80;73047.50;4944396;28;102193;-76
2023/08/06 07:12:04;;;;;;;;;;;;;;;;;;;;;
2023/08/06 08:53:04;;;;;;;;;0.00;0.00;;;;;-143.90;90.59;73225.19;4856485;27;103267;-76
2023/08/06 08:55:46;;;;;;;;;0.00;0.00;;;;;-143.90;92.33;73241.75;4989283;28;107480;-77
2023/08/06 08:58:48;;;;;;;;;0.00;0.00;;;;;-143.90;93.05;73231.41;4986353;28;102477;-77
2023/08/06 09:01:31;;;;;;;;;0.00;0.00;;;;;-143.90;92.19;73229.34;4986467;28;102929;-76
2023/08/06 09:04:13;;;;;;;;;0.00;0.00;;;;;-143.90;90.55;73250.00;5001328;28;102948;-77
2023/08/06 09:07:37;;;;;;;;;;;;;;;;;;;;;
2023/08/06 09:11:02;;;;;;;;;0.00;0.00;;;;;-143.90;89.88;73225.19;4936204;28;101760;-77
2023/08/06 09:18:00;;;;;;;;;;;;;;;;;;;;;
2023/08/06 09:21:03;;;;;;;;;;;;;;;;;;;;;
2023/08/06 09:27:44;;;;;;;;;1.00;0.00;;;;;-143.90;89.25;73237.59;4990491;28;102100;-78
2023/08/06 09:33:38;;;;;;;;;0.00;0.00;;;;;-143.90;89.48;73258.25;4993217;28;103425;-75
2023/08/06 09:38:03;;;;;;;;;;;;;;;;;;;;;
2023/08/06 09:41:48;;;;;;;;;;;;;;;;;;;;;
2023/08/06 09:45:39;;;;;;;;;;;;;;;;;;;;;
2023/08/06 09:49:09;;;;;;;;;;;;;;;;;;;;;
2023/08/06 09:52:10;;;;;;;;;;;;;;;;;;;;;
2023/08/06 09:55:40;;;;;;;;;0.00;0.00;;;;;-143.90;90.03;73235.53;4848576;28;103027;-75
2023/08/06 09:59:16;;;;;;;;;;;;;;;;;;;;;
2023/08/06 10:02:34;;;;;;;;;;;;;;;;;;;;;
2023/08/06 10:05:18;;;;;;;;;1.33;0.67;;;;;-143.90;89.44;73237.59;4832223;28;101823;-76
2023/08/06 10:08:10;;;;;;;;;0.00;0.00;;;;;-143.90;89.46;73254.13;4829267;28;101705;-76
2023/08/06 10:10:48;;;;;;;;;0.33;0.33;;;;;-143.90;88.71;73245.88;4934518;28;103143;-75
2023/08/06 10:13:27;;;;;;;;;1.00;1.00;;;;;-143.90;88.61;73250.00;4935913;28;102669;-75
2023/08/06 10:15:56;;;;;;;;;0.00;0.00;;;;;-143.90;88.76;73250.00;4936927;28;102018;-76
2023/08/06 10:18:32;;;;;;;;;0.67;0.67;;;;;-143.90;89.09;73256.19;4964442;28;102011;-76
2023/08/06 10:21:11;;;;;;;;;1.00;0.33;;;;;-143.90;88.58;73276.88;4983086;28;101770;-76
2023/08/06 10:24:03;;;;;;;;;0.00;0.00;;;;;-143.90;89.04;73287.19;4981407;27;103223;-76
2023/08/06 10:26:34;;;;;;;;;1.00;1.00;;;;;-143.90;88.90;73274.81;4991545;27;101515;-75
2023/08/06 10:29:37;;;;;;;;;0.00;0.00;;;;;-143.90;89.47;73278.94;4990641;27;102457;-76
2023/08/06 10:32:23;;;;;;;;;;;;;;;;;;;;;
2023/08/06 10:35:01;;;;;;;;;1.00;0.00;;;;;-143.90;89.63;73278.94;4994197;27;102718;-76
2023/08/06 10:37:39;;;;;;;;;0.00;0.00;;;;;-143.90;89.23;73276.88;4995322;28;101671;-76
2023/08/06 10:40:08;;;;;;;;;0.00;0.00;;;;;-143.90;89.18;73276.88;4993596;28;102177;-76
2023/08/06 10:42:40;;;;;;;;;0.00;0.00;;;;;-143.90;89.38;73276.88;4987436;28;101914;-78
2023/08/06 10:45:13;;;;;;;;;0.00;0.00;;;;;-143.90;89.18;73285.13;4997844;28;103339;-76
2023/08/06 10:47:40;;;;;;;;;0.00;0.00;;;;;-143.90;89.57;73293.41;4999463;28;101559;-77
2023/08/06 10:50:22;;;;;;;;;0.00;0.00;;;;;-143.90;89.51;73299.59;4992497;28;101664;-77
2023/08/06 10:52:53;;;;;;;;;0.00;0.00;;;;;-143.90;89.22;73303.72;5001932;28;101471;-77
2023/08/06 10:55:27;;;;;;;;;0.00;0.00;;;;;-143.90;89.59;73312.00;4997071;28;104688;-76
2023/08/06 10:57:59;;;;;;;;;0.00;0.00;;;;;-143.90;89.07;73314.06;5005090;28;101861;-76
2023/08/06 11:00:26;;;;;;;;;0.00;0.00;;;;;-143.90;89.14;73307.84;4999299;27;102183;-76
2023/08/06 11:03:05;;;;;;;;;0.00;0.00;;;;;-143.90;89.54;73305.78;4985822;28;102098;-77
2023/08/06 11:05:40;;;;;;;;;0.00;0.00;;;;;-143.90;89.25;73312.00;4996813;28;102369;-77
2023/08/06 11:08:28;;;;;;;;;0.00;0.00;;;;;-143.90;88.73;73309.94;4992613;28;101856;-76
2023/08/06 11:11:13;;;;;;;;;0.00;0.00;;;;;-143.90;89.37;73316.13;4984310;28;102439;-76
2023/08/06 11:14:01;;;;;;;;;0.00;0.00;;;;;-143.90;89.36;73318.19;4998699;28;102217;-75
2023/08/06 11:16:34;;;;;;;;;0.00;0.00;;;;;-143.90;90.02;73312.00;5004908;28;103504;-76
2023/08/06 11:19:25;;;;;;;;;0.00;0.00;;;;;-143.90;89.82;73309.94;4995640;27;101948;-76
2023/08/06 11:21:59;;;;;;;;;0.00;0.00;;;;;-143.90;90.34;73314.06;4990457;28;101770;-75
2023/08/06 11:24:27;;;;;;;;;0.00;0.00;;;;;-143.90;89.33;73324.41;4997416;27;102132;-75
2023/08/06 11:27:07;;;;;;;;;0.00;0.00;;;;;-143.90;89.81;73328.53;5003165;27;103543;-75
2023/08/06 11:29:58;;;;;;;;;0.00;0.00;;;;;-143.90;89.58;73343.00;5006583;27;101898;-75
2023/08/06 11:32:28;;;;;;;;;0.00;0.00;;;;;-143.90;89.82;73347.13;4998774;27;102008;-75
2023/08/06 11:35:13;;;;;;;;;0.00;0.00;;;;;-143.90;90.01;73355.38;4999888;28;101772;-75
2023/08/06 11:37:47;;;;;;;;;0.00;0.00;;;;;-143.90;90.27;73361.59;4996511;28;103631;-77
2023/08/06 11:40:24;;;;;;;;;0.00;0.00;;;;;-143.90;90.09;73361.59;4973974;28;102114;-76
2023/08/06 11:43:10;;;;;;;;;0.00;0.00;;;;;-143.90;90.28;73355.38;4987646;28;101762;-76
2023/08/06 11:45:38;;;;;;;;;0.00;0.00;;;;;-143.90;91.09;73357.47;4998044;27;101987;-75
2023/08/06 11:48:10;;;;;;;;;0.00;0.00;;;;;-143.90;91.08;73357.47;4995636;27;103242;-76
2023/08/06 11:50:38;;;;;;;;;0.00;0.00;;;;;-143.90;91.18;73355.38;4997557;27;101814;-76
2023/08/06 11:53:23;;;;;;;;;0.00;0.00;;;;;-143.90;90.80;73369.84;4988458;28;101752;-74
2023/08/06 11:55:52;;;;;;;;;0.00;0.00;;;;;-143.90;90.30;73369.84;4983197;28;103275;-76
2023/08/06 11:58:21;;;;;;;;;0.00;0.00;;;;;-143.90;90.52;73382.25;4975090;28;105085;-75
2023/08/06 12:00:48;;;;;;;;;0.00;0.00;;;;;-143.90;90.83;73386.38;4996811;28;101651;-76
2023/08/06 12:03:21;;;;;;;;;0.00;0.00;;;;;-143.90;91.25;73388.44;4971573;28;102864;-76
2023/08/06 12:05:54;;;;;;;;;0.00;0.00;;;;;-143.90;91.04;73378.13;4998007;27;103139;-75
2023/08/06 12:08:48;;;;;;;;;0.00;0.00;;;;;-143.90;91.08;73382.25;4994832;27;103002;-77
2023/08/06 12:11:26;;;;;;;;;0.00;0.00;;;;;-143.90;91.10;73392.59;4982764;28;102083;-76
2023/08/06 12:14:06;;;;;;;;;0.00;0.00;;;;;-143.90;91.00;73394.66;4992786;28;102528;-77
2023/08/06 12:16:56;;;;;;;;;0.00;0.00;;;;;-143.90;90.38;73392.59;4981322;27;101847;-77
2023/08/06 12:19:38;;;;;;;;;0.00;0.00;;;;;-143.90;89.90;73394.66;4998700;27;104782;-75
2023/08/06 12:22:39;;;;;;;;;0.00;0.00;;;;;-143.90;90.80;73415.31;4965179;28;101936;-76
2023/08/06 12:25:32;;;;;;;;;0.00;0.00;;;;;-143.90;91.07;73411.19;4998024;28;101587;-75
2023/08/06 12:28:06;;;;;;;;;0.00;0.00;;;;;-143.90;90.57;73421.53;5002360;27;101843;-76
2023/08/06 12:31:26;;;;;;;;;0.00;0.00;;;;;-143.90;90.98;73433.91;4979050;28;104006;-76
2023/08/06 12:38:15;;;;;;;;;0.00;0.00;;;;;-143.90;90.75;73435.97;4995512;28;101997;-77
2023/08/06 12:41:45;;;;;;;;;;;;;;;;;;;;;
2023/08/06 12:48:48;;;;;;;;;;;;;;;;;;;;;
2023/08/06 12:52:19;;;;;;;;;;;;;;;;;;;;;
2023/08/06 12:55:04;;;;;;;;;0.00;0.00;;;;;-143.90;91.21;73419.44;4969217;28;101593;-76
2023/08/06 12:57:34;;;;;;;;;0.00;0.00;;;;;-143.90;91.30;73411.19;4985135;28;102569;-74
2023/08/06 13:04:14;;;;;;;;;;;;;;;;;;;;;
2023/08/06 13:07:47;;;;;;;;;0.00;0.00;;;;;-143.90;90.39;73390.53;4973654;28;101920;-76
2023/08/06 13:22:15;;;;;;;;;;;;;;;;;;;;;
2023/08/06 13:28:11;;;;;;;;;0.00;0.00;;;;;-143.90;88.06;73340.94;4729941;29;101574;-74
2023/08/06 13:37:32;;;;;;;;;0.00;0.00;;;;;-143.90;86.81;73309.94;4727590;29;103425;-74
2023/08/06 13:40:10;;;;;;;;;0.00;0.00;;;;;-143.90;86.72;73324.41;4852914;28;102356;-75
2023/08/06 13:43:15;;;;;;;;;0.00;0.00;;;;;-143.90;86.53;73336.78;4852435;28;102710;-76
2023/08/06 13:46:09;;;;;;;;;0.00;0.00;;;;;-143.90;86.08;73336.78;4845867;28;102967;-73
2023/08/06 13:48:41;;;;;;;;;0.00;0.00;;;;;-143.90;85.41;73336.78;4866006;28;104109;-73
2023/08/06 13:51:36;;;;;;;;;0.00;0.00;;;;;-143.90;85.01;73330.59;4856927;28;102970;-74
2023/08/06 13:54:49;;;;;;;;;0.00;0.00;;;;;-143.90;84.76;73351.25;4877026;28;102742;-74
2023/08/06 13:58:37;;;;;;;;;;;;;;;;;;;;;
2023/08/06 14:16:24;;;;;;;;;;;;;;;;;;;;;
2023/08/06 14:19:34;;;;;;;;;0.00;0.00;;;;;-143.90;84.63;73380.19;4769844;29;103501;-74
2023/08/06 14:23:05;;;;;;;;;0.00;0.00;;;;;-143.90;84.75;73380.19;4785078;29;101718;-74
2023/08/06 14:25:56;;;;;;;;;0.00;0.00;;;;;-143.90;85.38;73404.97;4764446;29;102193;-75
2023/08/06 14:29:35;;;;;;;;;;;;;;;;;;;;;
2023/08/06 14:34:28;;;;;;;;;0.00;0.00;;;;;-143.90;85.85;73411.19;4955255;28;102423;-80
2023/08/06 14:36:55;;;;;;;;;1.00;0.00;;;;;-143.90;86.70;73407.06;4956670;28;102417;-80
2023/08/06 14:39:23;;;;;;;;;0.00;0.00;;;;;-143.90;85.44;73404.97;4956032;28;104372;-78
2023/08/06 14:41:50;;;;;;;;;0.00;0.00;;;;;-143.90;86.26;73398.78;4957496;28;101886;-79
2023/08/06 14:44:17;;;;;;;;;0.00;0.00;;;;;-143.90;86.22;73394.66;4957334;28;102284;-80
2023/08/06 14:46:44;;;;;;;;;0.00;0.00;;;;;-143.90;86.15;73398.78;4963747;28;102506;-80
2023/08/06 14:49:11;;;;;;;;;0.00;0.00;;;;;-143.90;86.64;73402.91;4960307;28;104196;-80
2023/08/06 14:51:38;;;;;;;;;0.00;0.00;;;;;-143.90;86.47;73402.91;4959117;28;102257;-81
2023/08/06 14:54:05;;;;;;;;;0.00;0.00;;;;;-143.90;85.80;73402.91;4969534;28;102681;-80
2023/08/06 14:56:32;;;;;;;;;0.00;0.00;;;;;-143.90;86.19;73409.13;4977554;28;102323;-80
2023/08/06 14:58:59;;;;;;;;;0.00;0.00;;;;;-143.90;86.91;73398.78;4980965;28;104123;-81
2023/08/06 15:01:26;;;;;;;;;0.00;0.00;;;;;-143.90;87.41;73390.53;4979333;28;102340;-81
2023/08/06 15:03:54;;;;;;;;;0.00;0.00;;;;;-143.90;86.90;73394.66;4979905;28;102248;-83
2023/08/06 15:06:21;;;;;;;;;0.00;0.00;;;;;-143.90;86.52;73402.91;4977841;28;102611;-80
2023/08/06 15:08:48;;;;;;;;;1.00;0.00;;;;;-143.90;86.92;73402.91;4974809;28;104124;-80
2023/08/06 15:11:15;;;;;;;;;0.00;0.00;;;;;-143.90;87.24;73407.06;4978132;28;103031;-87
2023/08/06 15:13:42;;;;;;;;;0.00;0.00;;;;;-143.90;86.93;73407.06;4975882;28;102773;-80
2023/08/06 15:16:14;;;;;;;;;0.00;0.00;;;;;-143.90;87.30;73423.59;4974474;28;103180;-79